Time;durP1;ratioP1;P1;durP2;ratioP2;P2;SDS_P1;SDS_P2;PMS_P1;PMS_P2;Temp;Humidity;BMP_temperature;BMP_pressure;BME280_temperature;BME280_humidity;BME280_pressure;Samples;Min_cycle;Max_cycle;Signal;HPM_P1;HPM_P2
2021/09/27 00:00:24;;;;;;;35.92;32.00;;;16.40;99.90;;;;;;5031005;28;20037;-76
2021/09/27 00:02:50;;;;;;;44.65;35.75;;;16.40;99.90;;;;;;5048013;28;20047;-76
2021/09/27 00:05:17;;;;;;;40.92;34.60;;;16.40;99.90;;;;;;5034137;28;20052;-76
2021/09/27 00:07:44;;;;;;;39.40;34.38;;;16.40;99.90;;;;;;5033205;28;20071;-76
2021/09/27 00:10:16;;;;;;;37.30;33.05;;;16.40;99.90;;;;;;5031131;28;20527;-76
2021/09/27 00:12:42;;;;;;;42.10;32.17;;;16.40;99.90;;;;;;5049686;28;20462;-76
2021/09/27 00:15:12;;;;;;;36.78;32.72;;;16.40;99.90;;;;;;5016809;28;20132;-76
2021/09/27 00:17:38;;;;;;;37.92;32.55;;;16.40;99.90;;;;;;5050081;28;20076;-76
2021/09/27 00:20:07;;;;;;;35.17;31.33;;;16.40;99.90;;;;;;5016548;28;20073;-76
2021/09/27 00:22:33;;;;;;;29.20;26.17;;;16.30;99.90;;;;;;5032887;28;20067;-76
2021/09/27 00:24:58;;;;;;;35.58;30.25;;;16.30;99.90;;;;;;5029106;28;20049;-76
2021/09/27 00:27:24;;;;;;;31.75;27.45;;;16.20;99.90;;;;;;5031845;28;20052;-76
2021/09/27 00:29:50;;;;;;;30.50;26.92;;;16.20;99.90;;;;;;5048421;28;20052;-76
2021/09/27 00:32:16;;;;;;;32.13;28.83;;;16.20;99.90;;;;;;5032726;28;20131;-76
2021/09/27 00:34:42;;;;;;;30.23;26.80;;;16.10;99.90;;;;;;5015774;28;20096;-76
2021/09/27 00:37:08;;;;;;;32.90;28.00;;;16.00;99.90;;;;;;5017916;28;20114;-76
2021/09/27 00:39:34;;;;;;;33.03;29.08;;;16.00;99.90;;;;;;5049721;28;20037;-76
2021/09/27 00:42:00;;;;;;;31.45;27.15;;;16.00;99.90;;;;;;5035396;28;20454;-76
2021/09/27 00:44:25;;;;;;;33.15;28.40;;;15.90;99.90;;;;;;5035478;28;20406;-76
2021/09/27 00:46:53;;;;;;;28.60;25.70;;;15.90;99.90;;;;;;5051452;28;20240;-76
2021/09/27 00:49:19;;;;;;;30.90;27.05;;;15.80;99.90;;;;;;5052361;28;20040;-76
2021/09/27 00:51:45;;;;;;;31.35;27.63;;;15.70;99.90;;;;;;5034379;28;20045;-77
2021/09/27 00:54:25;;;;;;;30.38;26.98;;;15.70;99.90;;;;;;5035661;28;20075;-77
2021/09/27 00:56:55;;;;;;;25.25;22.75;;;15.60;99.90;;;;;;5033509;28;20493;-76
2021/09/27 00:59:24;;;;;;;35.72;30.00;;;15.60;99.90;;;;;;5051210;28;20515;-76
2021/09/27 01:01:51;;;;;;;28.67;25.75;;;15.60;99.90;;;;;;5051479;28;20036;-77
2021/09/27 01:04:18;;;;;;;30.38;27.17;;;15.60;99.90;;;;;;5034720;28;20159;-76
2021/09/27 01:07:21;;;;;;;32.78;29.25;;;15.60;99.90;;;;;;5050926;28;20774;-76
2021/09/27 01:10:06;;;;;;;31.77;28.45;;;15.60;99.90;;;;;;5051434;28;20033;-76
2021/09/27 01:13:02;;;;;;;42.65;34.83;;;15.60;99.90;;;;;;5050982;28;20324;-76
2021/09/27 01:15:49;;;;;;;39.22;31.58;;;15.60;99.90;;;;;;5034957;28;20044;-76
2021/09/27 01:18:40;;;;;;;28.45;25.42;;;15.60;99.90;;;;;;5068127;28;20073;-76
2021/09/27 01:21:26;;;;;;;32.33;28.02;;;15.60;99.90;;;;;;5075315;28;20372;-77
2021/09/27 01:24:25;;;;;;;36.88;29.15;;;15.60;99.90;;;;;;5034600;28;20044;-76
2021/09/27 01:27:14;;;;;;;42.50;33.42;;;15.50;99.90;;;;;;5067011;28;20115;-77
2021/09/27 01:29:47;;;;;;;46.08;35.75;;;15.60;99.90;;;;;;5034200;28;20105;-77
2021/09/27 01:32:39;;;;;;;45.20;34.72;;;15.60;99.90;;;;;;5048927;28;20368;-77
2021/09/27 01:35:33;;;;;;;45.13;34.40;;;15.60;99.90;;;;;;5031783;28;20052;-77
2021/09/27 01:38:22;;;;;;;44.10;34.42;;;15.60;99.90;;;;;;5028813;28;20045;-76
2021/09/27 01:41:08;;;;;;;36.37;32.50;;;15.60;99.90;;;;;;5045757;28;20060;-77
2021/09/27 01:43:43;;;;;;;36.30;30.42;;;15.60;99.90;;;;;;5047374;28;20307;-77
2021/09/27 01:46:43;;;;;;;49.13;37.08;;;15.60;99.90;;;;;;5031119;28;20044;-76
2021/09/27 01:49:33;;;;;;;36.30;31.20;;;15.50;99.90;;;;;;5063054;28;20514;-77
2021/09/27 01:52:07;;;;;;;50.17;36.00;;;15.50;99.90;;;;;;5048282;28;20407;-77
2021/09/27 01:54:45;;;;;;;43.05;34.20;;;15.50;99.90;;;;;;5031223;28;20499;-77
2021/09/27 01:57:33;;;;;;;45.20;35.38;;;15.50;99.90;;;;;;5030139;28;20049;-77
2021/09/27 02:00:37;;;;;;;40.42;33.08;;;15.50;99.90;;;;;;5063056;28;20408;-77
2021/09/27 02:03:20;;;;;;;34.78;29.73;;;15.40;99.90;;;;;;4975587;28;20115;-77
2021/09/27 02:06:13;;;;;;;37.25;30.33;;;15.40;99.90;;;;;;4982919;28;20057;-77
2021/09/27 02:08:52;;;;;;;33.72;28.10;;;15.40;99.90;;;;;;5061957;28;20045;-77
2021/09/27 02:11:32;;;;;;;37.03;30.92;;;15.30;99.90;;;;;;5066004;28;20067;-76
2021/09/27 02:14:05;;;;;;;32.25;28.58;;;15.30;99.90;;;;;;5032883;28;20510;-77
2021/09/27 02:16:42;;;;;;;37.00;31.98;;;15.30;99.90;;;;;;5011887;28;20377;-77
2021/09/27 02:19:21;;;;;;;43.65;34.85;;;15.30;99.90;;;;;;5010991;28;20099;-77
2021/09/27 02:21:51;;;;;;;47.33;38.70;;;15.30;99.90;;;;;;5010446;28;20057;-77
2021/09/27 02:24:35;;;;;;;;;;;15.30;99.90;;;;;;5011596;28;20064;-77
2021/09/27 02:27:04;;;;;;;41.67;33.35;;;15.30;99.90;;;;;;4976262;28;19929;-77
2021/09/27 02:29:31;;;;;;;37.22;33.05;;;15.30;99.90;;;;;;4996021;28;20107;-77
2021/09/27 02:32:12;;;;;;;36.33;32.30;;;15.30;99.90;;;;;;5011032;28;20049;-78
2021/09/27 02:35:06;;;;;;;44.67;35.47;;;15.40;99.90;;;;;;5019892;28;20046;-77
2021/09/27 02:37:38;;;;;;;35.22;30.60;;;15.30;99.90;;;;;;4992783;28;20049;-77
2021/09/27 02:40:26;;;;;;;38.05;32.03;;;15.30;99.90;;;;;;4991361;28;20495;-77
2021/09/27 02:42:58;;;;;;;41.13;33.50;;;15.30;99.90;;;;;;5008679;28;20165;-78
2021/09/27 02:45:26;;;;;;;43.25;35.53;;;15.30;99.90;;;;;;5009287;28;20057;-77
2021/09/27 02:47:55;;;;;;;47.30;37.10;;;15.20;99.90;;;;;;5009192;28;20046;-77
2021/09/27 02:50:27;;;;;;;44.40;35.55;;;15.20;99.90;;;;;;5008210;28;20042;-77
2021/09/27 02:52:55;;;;;;;39.17;32.30;;;15.20;99.90;;;;;;4993713;28;20035;-78
2021/09/27 02:55:23;;;;;;;44.38;35.03;;;15.20;99.90;;;;;;5029044;28;20063;-78
2021/09/27 02:58:29;;;;;;;48.25;36.22;;;15.30;99.90;;;;;;5029443;28;20093;-78
2021/09/27 03:01:07;;;;;;;41.92;34.40;;;15.30;99.90;;;;;;5046763;28;20045;-77
2021/09/27 03:04:10;;;;;;;45.63;36.88;;;15.20;99.90;;;;;;5046369;28;20044;-78
2021/09/27 03:06:51;;;;;;;46.50;35.20;;;15.30;99.90;;;;;;5028363;28;20060;-78
2021/09/27 03:09:42;;;;;;;49.15;36.63;;;15.30;99.90;;;;;;5046132;28;20717;-78
2021/09/27 03:12:42;;;;;;;54.80;38.28;;;15.20;99.90;;;;;;5026500;28;20637;-77
2021/09/27 03:15:26;;;;;;;;;;;15.20;99.90;;;;;;5028002;28;20059;-77
2021/09/27 03:18:02;;;;;;;46.53;36.25;;;15.20;99.90;;;;;;5043067;28;19925;-78
2021/09/27 03:20:28;;;;;;;48.63;35.88;;;15.20;99.90;;;;;;5028217;28;20128;-78
2021/09/27 03:23:00;;;;;;;44.35;35.67;;;15.20;99.90;;;;;;5044884;28;20131;-77
2021/09/27 03:25:49;;;;;;;52.92;38.45;;;15.20;99.90;;;;;;5044905;28;20102;-77
2021/09/27 03:28:17;;;;;;;44.17;33.67;;;15.20;99.90;;;;;;5045210;28;20044;-77
2021/09/27 03:30:59;;;;;;;46.78;36.17;;;15.20;99.90;;;;;;5044413;28;20041;-78
2021/09/27 03:33:46;;;;;;;39.88;32.05;;;15.20;99.90;;;;;;5045108;28;20509;-77
2021/09/27 03:36:23;;;;;;;46.20;35.70;;;15.10;99.90;;;;;;5043331;28;20503;-78
2021/09/27 03:39:05;;;;;;;57.83;38.58;;;15.10;99.90;;;;;;5029071;28;20049;-77
2021/09/27 03:41:47;;;;;;;43.50;34.53;;;15.10;99.90;;;;;;5046375;28;20041;-77
2021/09/27 03:44:48;;;;;;;40.65;32.03;;;15.10;99.90;;;;;;5029460;28;20067;-77
2021/09/27 03:47:24;;;;;;;48.47;36.17;;;15.00;99.90;;;;;;5043839;28;20624;-77
2021/09/27 03:49:57;;;;;;;34.60;29.52;;;15.00;99.90;;;;;;5070932;28;20098;-77
2021/09/27 03:52:45;;;;;;;51.83;37.45;;;15.00;99.90;;;;;;5029618;28;20052;-77
2021/09/27 03:55:44;;;;;;;46.95;35.08;;;15.00;99.90;;;;;;5023640;28;20053;-77
2021/09/27 03:58:17;;;;;;;45.78;36.85;;;15.00;99.90;;;;;;5045164;28;20045;-77
2021/09/27 04:01:15;;;;;;;45.92;36.85;;;15.00;99.90;;;;;;5026854;28;20048;-78
2021/09/27 04:04:13;;;;;;;46.83;36.72;;;15.00;99.90;;;;;;5034813;28;20450;-78
2021/09/27 04:06:58;;;;;;;48.03;35.90;;;15.00;99.90;;;;;;5040962;28;20052;-77
2021/09/27 04:09:33;;;;;;;49.33;35.38;;;15.00;99.90;;;;;;5030794;28;20088;-78
2021/09/27 04:12:34;;;;;;;42.72;34.33;;;15.00;99.90;;;;;;5028019;28;20052;-77
2021/09/27 04:15:27;;;;;;;42.72;33.22;;;14.90;99.90;;;;;;4985534;28;20056;-78
2021/09/27 04:18:17;;;;;;;38.50;32.65;;;15.00;99.90;;;;;;5011517;28;20049;-78
2021/09/27 04:21:17;;;;;;;37.25;30.10;;;14.90;99.90;;;;;;5011016;28;20056;-78
2021/09/27 04:24:16;;;;;;;41.80;34.65;;;14.90;99.90;;;;;;5036122;28;20533;-78
2021/09/27 04:27:13;;;;;;;48.47;34.97;;;14.90;99.90;;;;;;5024142;28;20080;-78
2021/09/27 04:30:04;;;;;;;40.88;33.55;;;14.90;99.90;;;;;;5011192;28;20053;-78
2021/09/27 04:32:30;;;;;;;;;;;14.90;99.90;;;;;;5033630;28;20044;-78
2021/09/27 04:35:05;;;;;;;52.47;37.10;;;14.90;99.90;;;;;;5080982;28;20019;-78
2021/09/27 04:37:31;;;;;;;57.22;38.13;;;14.80;99.90;;;;;;5046832;28;20049;-78
2021/09/27 04:39:58;;;;;;;45.22;33.55;;;14.80;99.90;;;;;;5030394;28;20406;-78
2021/09/27 04:42:46;;;;;;;72.53;39.67;;;14.80;99.90;;;;;;5030208;28;20049;-78
2021/09/27 04:45:43;;;;;;;53.10;38.83;;;14.80;99.90;;;;;;5031071;28;20041;-80
2021/09/27 04:48:17;;;;;;;65.93;40.35;;;14.90;99.90;;;;;;5051074;28;20049;-78
2021/09/27 04:51:21;;;;;;;59.88;40.13;;;14.80;99.90;;;;;;5050580;28;20064;-78
2021/09/27 04:54:11;;;;;;;55.97;38.88;;;14.80;99.90;;;;;;5031764;28;20064;-78
2021/09/27 04:56:46;;;;;;;60.95;40.13;;;14.80;99.90;;;;;;5019269;28;20045;-78
2021/09/27 04:59:24;;;;;;;51.60;38.17;;;14.80;99.90;;;;;;5047392;28;20052;-78
2021/09/27 05:02:26;;;;;;;48.10;35.97;;;14.80;99.90;;;;;;5060552;28;20083;-78
2021/09/27 05:04:59;;;;;;;58.97;40.55;;;14.80;99.90;;;;;;5013636;28;20585;-78
2021/09/27 05:07:57;;;;;;;45.67;35.20;;;14.80;99.90;;;;;;5030036;28;20642;-78
2021/09/27 05:10:58;;;;;;;65.93;42.78;;;14.80;99.90;;;;;;5020331;28;20050;-77
2021/09/27 05:13:56;;;;;;;66.05;41.20;;;14.80;99.90;;;;;;5041735;28;20072;-78
2021/09/27 05:16:24;;;;;;;71.10;42.50;;;14.80;99.90;;;;;;5029837;28;20137;-78
2021/09/27 05:19:22;;;;;;;54.90;39.85;;;14.70;99.90;;;;;;5045629;28;20045;-77
2021/09/27 05:22:16;;;;;;;62.08;40.90;;;14.80;99.90;;;;;;5028654;28;20446;-78
2021/09/27 05:25:00;;;;;;;62.55;39.33;;;14.70;99.90;;;;;;5081205;28;20722;-78
2021/09/27 05:27:44;;;;;;;59.58;39.53;;;14.80;99.90;;;;;;5028187;28;20495;-77
2021/09/27 05:30:13;;;;;;;50.15;34.85;;;14.70;99.90;;;;;;5046471;28;20669;-78
2021/09/27 05:33:10;;;;;;;49.60;36.33;;;14.70;99.90;;;;;;5048443;28;20053;-78
2021/09/27 05:35:35;;;;;;;70.50;41.38;;;14.70;99.90;;;;;;5061789;28;20135;-78
2021/09/27 05:38:10;;;;;;;52.72;38.65;;;14.70;99.90;;;;;;5029823;28;20499;-78
2021/09/27 05:40:58;;;;;;;51.95;37.30;;;14.70;99.90;;;;;;5027988;28;20037;-77
2021/09/27 05:43:48;;;;;;;70.22;40.65;;;14.70;99.90;;;;;;5046074;28;20044;-77
2021/09/27 05:46:41;;;;;;;65.03;42.35;;;14.70;99.90;;;;;;5029019;28;20067;-78
2021/09/27 05:49:13;;;;;;;55.35;37.85;;;14.70;99.90;;;;;;5046011;28;20068;-78
2021/09/27 05:52:03;;;;;;;56.35;39.28;;;14.70;99.90;;;;;;5047305;28;20040;-78
2021/09/27 05:54:38;;;;;;;;;;;14.70;99.90;;;;;;5046023;28;20492;-76
2021/09/27 05:57:29;;;;;;;65.80;41.58;;;14.70;99.90;;;;;;5045814;28;19920;-77
2021/09/27 06:00:21;;;;;;;68.88;44.45;;;14.80;99.90;;;;;;5025014;28;20081;-77
2021/09/27 06:03:25;;;;;;;77.40;45.15;;;14.80;99.90;;;;;;5028074;28;20047;-77
2021/09/27 06:06:12;;;;;;;76.53;46.25;;;14.90;99.90;;;;;;5064150;28;20045;-77
2021/09/27 06:09:03;;;;;;;85.63;47.17;;;14.90;99.90;;;;;;5047485;28;20048;-77
2021/09/27 06:11:56;;;;;;;69.22;45.15;;;15.00;99.90;;;;;;5046832;28;20491;-77
2021/09/27 06:14:25;;;;;;;85.63;47.92;;;15.10;99.90;;;;;;5046860;28;20040;-76
2021/09/27 06:16:54;;;;;;;67.70;45.25;;;15.10;99.90;;;;;;5047871;28;20037;-76
2021/09/27 06:19:34;;;;;;;77.70;46.05;;;15.20;99.90;;;;;;5029302;28;20049;-77
2021/09/27 06:22:15;;;;;;;;;;;15.20;99.90;;;;;;5046127;28;20041;-77
2021/09/27 06:24:53;;;;;;;69.82;43.90;;;15.20;99.90;;;;;;5029389;28;19971;-76
2021/09/27 06:27:47;;;;;;;83.90;46.58;;;15.20;99.90;;;;;;5047990;28;20048;-76
2021/09/27 06:30:46;;;;;;;73.70;46.40;;;15.30;99.90;;;;;;5046834;28;20068;-76
2021/09/27 06:33:12;;;;;;;82.70;45.23;;;15.30;99.90;;;;;;5031521;28;20522;-76
2021/09/27 06:35:40;;;;;;;80.32;47.33;;;15.40;99.90;;;;;;5028558;28;20280;-76
2021/09/27 06:38:10;;;;;;;68.97;44.50;;;15.30;99.90;;;;;;5029473;28;20115;-76
2021/09/27 06:40:43;;;;;;;72.63;46.28;;;15.40;99.90;;;;;;5030418;28;20049;-76
2021/09/27 06:43:12;;;;;;;63.15;43.75;;;15.50;99.90;;;;;;5048654;28;20088;-77
2021/09/27 06:45:38;;;;;;;71.22;44.70;;;15.50;99.90;;;;;;5046301;28;20075;-75
2021/09/27 06:48:04;;;;;;;71.40;43.92;;;15.50;99.90;;;;;;5047551;28;20123;-77
2021/09/27 06:50:30;;;;;;;78.93;47.17;;;15.50;99.90;;;;;;5045495;28;20076;-76
2021/09/27 06:52:56;;;;;;;88.30;47.33;;;15.50;99.90;;;;;;5029497;28;20049;-76
2021/09/27 06:55:22;;;;;;;105.85;49.60;;;15.60;99.90;;;;;;5030246;28;20163;-76
2021/09/27 06:57:48;;;;;;;86.95;46.70;;;15.60;99.90;;;;;;5029644;28;20037;-76
2021/09/27 07:00:14;;;;;;;90.18;47.38;;;15.60;99.90;;;;;;5049346;28;20037;-77
2021/09/27 07:02:41;;;;;;;84.30;45.35;;;15.60;99.90;;;;;;5049809;28;20550;-75
2021/09/27 07:05:09;;;;;;;86.90;46.95;;;15.60;99.90;;;;;;5030040;28;20714;-77
2021/09/27 07:07:36;;;;;;;77.97;44.95;;;15.70;99.90;;;;;;5010501;28;20052;-79
2021/09/27 07:10:08;;;;;;;76.43;45.08;;;15.70;99.90;;;;;;5030889;28;20534;-78
2021/09/27 07:12:34;;;;;;;79.93;43.85;;;15.80;99.90;;;;;;5046243;28;20070;-77
2021/09/27 07:15:00;;;;;;;73.05;44.35;;;15.80;99.90;;;;;;5030931;28;20048;-78
2021/09/27 07:17:26;;;;;;;80.60;44.22;;;15.90;99.90;;;;;;5028867;28;20107;-77
2021/09/27 07:19:52;;;;;;;69.30;43.60;;;15.80;99.90;;;;;;5029802;28;20259;-78
2021/09/27 07:22:17;;;;;;;73.75;43.42;;;15.90;99.90;;;;;;5029143;28;20040;-78
2021/09/27 07:24:45;;;;;;;68.47;43.28;;;15.90;99.90;;;;;;5045984;28;20368;-78
2021/09/27 07:27:11;;;;;;;77.88;44.33;;;15.90;99.90;;;;;;5047104;28;20447;-78
2021/09/27 07:29:37;;;;;;;67.07;41.92;;;15.90;99.90;;;;;;5045679;28;20047;-76
2021/09/27 07:32:04;;;;;;;66.65;40.65;;;16.00;99.90;;;;;;5028753;28;20124;-77
2021/09/27 07:34:29;;;;;;;65.97;42.08;;;16.00;99.90;;;;;;5046427;28;20102;-77
2021/09/27 07:36:57;;;;;;;66.05;41.08;;;16.00;99.90;;;;;;5034402;28;20487;-78
2021/09/27 07:39:23;;;;;;;54.60;38.53;;;16.00;99.90;;;;;;5036691;28;20079;-77
2021/09/27 07:41:49;;;;;;;61.65;40.78;;;16.00;99.90;;;;;;5018667;28;20036;-78
2021/09/27 07:44:15;;;;;;;57.05;39.72;;;16.00;99.90;;;;;;5051316;28;20040;-79
2021/09/27 07:46:41;;;;;;;60.03;39.85;;;16.10;99.90;;;;;;5048654;28;20058;-76
2021/09/27 07:49:07;;;;;;;64.18;38.97;;;16.10;99.90;;;;;;5054406;28;20047;-78
2021/09/27 07:51:34;;;;;;;55.38;39.17;;;16.20;99.90;;;;;;5070594;28;20571;-78
2021/09/27 07:54:00;;;;;;;55.97;39.25;;;16.20;99.90;;;;;;5012254;28;20052;-78
2021/09/27 07:56:26;;;;;;;52.83;37.58;;;16.20;99.90;;;;;;5035912;28;20044;-75
2021/09/27 07:58:51;;;;;;;51.72;37.35;;;16.30;99.90;;;;;;5035722;28;20561;-75
2021/09/27 08:01:17;;;;;;;49.83;36.92;;;16.30;99.90;;;;;;5017466;28;20036;-75
2021/09/27 08:03:43;;;;;;;43.47;36.10;;;16.40;99.90;;;;;;5025229;28;20051;-78
2021/09/27 08:06:11;;;;;;;44.63;34.50;;;16.40;99.90;;;;;;5033563;28;20490;-75
2021/09/27 08:08:37;;;;;;;46.88;35.55;;;16.50;99.90;;;;;;5035629;28;20036;-75
2021/09/27 08:11:03;;;;;;;44.60;35.35;;;16.50;99.90;;;;;;5031163;28;20053;-76
2021/09/27 08:13:29;;;;;;;44.92;35.38;;;16.60;99.90;;;;;;5051342;28;20036;-75
2021/09/27 08:15:56;;;;;;;44.90;35.13;;;16.70;99.90;;;;;;5012825;28;20048;-76
2021/09/27 08:18:25;;;;;;;38.72;33.15;;;16.80;99.90;;;;;;5051725;28;20044;-76
2021/09/27 08:20:57;;;;;;;36.85;32.17;;;16.90;99.90;;;;;;5035246;28;20135;-76
2021/09/27 08:23:24;;;;;;;37.42;31.50;;;17.00;99.90;;;;;;5054424;28;20052;-75
2021/09/27 08:25:52;;;;;;;36.70;32.50;;;17.10;99.90;;;;;;5037751;28;20060;-76
2021/09/27 08:28:20;;;;;;;35.45;30.08;;;17.40;99.90;;;;;;5053174;28;20632;-76
2021/09/27 08:31:10;;;;;;;32.38;28.88;;;17.60;99.90;;;;;;5036208;28;20094;-75
2021/09/27 08:33:37;;;;;;;29.20;25.98;;;17.70;99.90;;;;;;5032998;28;20039;-75
2021/09/27 08:36:06;;;;;;;33.45;28.40;;;17.80;99.90;;;;;;5033495;28;20599;-75
2021/09/27 08:38:37;;;;;;;30.63;27.35;;;17.90;99.90;;;;;;5037839;28;20044;-76
2021/09/27 08:41:30;;;;;;;32.08;27.95;;;17.90;99.90;;;;;;5035700;28;20156;-76
2021/09/27 08:44:34;;;;;;;29.42;26.25;;;18.00;99.90;;;;;;5036131;28;20127;-76
2021/09/27 08:47:20;;;;;;;28.90;25.77;;;18.10;99.90;;;;;;5051633;28;20135;-76
2021/09/27 08:50:00;;;;;;;27.27;24.50;;;18.10;99.90;;;;;;5035368;28;20049;-75
2021/09/27 08:52:31;;;;;;;27.33;24.55;;;18.20;99.90;;;;;;5050875;28;20119;-76
2021/09/27 08:54:59;;;;;;;27.27;24.42;;;18.20;99.90;;;;;;5055760;28;20546;-76
2021/09/27 08:57:43;;;;;;;27.58;24.77;;;18.20;99.90;;;;;;5053249;28;20052;-76
2021/09/27 09:00:33;;;;;;;29.00;25.73;;;18.40;99.90;;;;;;5036825;28;20047;-76
2021/09/27 09:03:15;;;;;;;27.90;24.10;;;18.50;99.90;;;;;;5056016;28;20131;-76
2021/09/27 09:06:07;;;;;;;26.73;23.98;;;18.40;99.90;;;;;;5034097;28;20075;-76
2021/09/27 09:08:36;;;;;;;26.85;23.08;;;18.30;99.90;;;;;;5027859;28;20395;-76
2021/09/27 09:11:07;;;;;;;29.02;22.98;;;18.30;99.90;;;;;;5069170;28;20046;-77
2021/09/27 09:13:44;;;;;;;27.35;24.25;;;18.30;99.90;;;;;;5040437;28;20048;-77
2021/09/27 09:16:16;;;;;;;27.92;24.05;;;18.40;99.90;;;;;;5016851;28;20102;-77
2021/09/27 09:18:56;;;;;;;27.45;23.75;;;18.50;99.90;;;;;;5053794;28;20113;-77
2021/09/27 09:21:41;;;;;;;25.42;22.88;;;18.60;99.90;;;;;;5052631;28;20056;-76
2021/09/27 09:24:12;;;;;;;25.20;22.60;;;18.80;99.90;;;;;;5053354;28;20506;-75
2021/09/27 09:26:43;;;;;;;23.42;20.92;;;18.90;99.90;;;;;;5035737;28;20681;-76
2021/09/27 09:29:10;;;;;;;24.55;22.02;;;18.90;99.90;;;;;;5052301;28;20518;-77
2021/09/27 09:31:44;;;;;;;24.95;22.40;;;18.90;99.90;;;;;;5034029;28;20040;-77
2021/09/27 09:34:22;;;;;;;24.33;21.73;;;18.90;99.90;;;;;;5038653;28;20052;-77
2021/09/27 09:36:54;;;;;;;21.92;19.65;;;18.90;99.90;;;;;;5031902;28;20356;-76
2021/09/27 09:39:34;;;;;;;23.25;19.42;;;19.00;99.90;;;;;;5048884;28;20037;-76
2021/09/27 09:42:15;;;;;;;21.05;18.80;;;19.10;99.90;;;;;;5035656;28;20041;-76
2021/09/27 09:44:46;;;;;;;21.35;18.95;;;19.20;99.90;;;;;;5081555;28;20047;-74
2021/09/27 09:47:18;;;;;;;20.35;18.30;;;19.40;99.90;;;;;;5035785;28;20048;-75
2021/09/27 09:50:02;;;;;;;19.65;17.75;;;19.50;99.90;;;;;;5052859;28;20119;-78
2021/09/27 09:52:36;;;;;;;20.42;17.45;;;19.60;99.90;;;;;;5089991;28;20037;-74
2021/09/27 09:55:38;;;;;;;19.38;17.33;;;19.70;99.90;;;;;;5052584;28;20520;-74
2021/09/27 09:58:09;;;;;;;18.88;17.02;;;19.60;99.90;;;;;;5043631;28;20055;-75
2021/09/27 10:00:50;;;;;;;;;;;19.60;99.90;;;;;;5049371;28;20086;-74
2021/09/27 10:03:38;;;;;;;18.73;16.63;;;19.70;99.90;;;;;;5049975;28;19924;-74
2021/09/27 10:06:12;;;;;;;17.80;15.90;;;19.70;99.90;;;;;;5030919;28;20056;-75
2021/09/27 10:08:53;;;;;;;17.98;16.17;;;19.70;99.90;;;;;;5065276;28;20048;-74
2021/09/27 10:11:40;;;;;;;18.42;16.63;;;19.70;99.90;;;;;;5048305;28;20041;-75
2021/09/27 10:14:28;;;;;;;16.50;14.80;;;19.70;99.90;;;;;;5028921;28;20059;-73
2021/09/27 10:17:06;;;;;;;17.85;15.38;;;19.70;99.90;;;;;;5048060;28;20084;-74
2021/09/27 10:19:39;;;;;;;17.40;15.60;;;19.60;99.90;;;;;;5041516;28;20533;-74
2021/09/27 10:22:11;;;;;;;16.95;15.20;;;19.70;99.90;;;;;;5063764;28;20052;-74
2021/09/27 10:24:47;;;;;;;17.27;15.35;;;19.80;99.90;;;;;;5048365;28;20048;-75
2021/09/27 10:27:44;;;;;;;17.35;15.02;;;19.90;99.90;;;;;;5059761;28;20045;-75
2021/09/27 10:30:12;;;;;;;16.10;13.85;;;20.10;99.90;;;;;;5045811;28;20103;-74
2021/09/27 10:32:40;;;;;;;14.65;13.10;;;20.40;99.90;;;;;;5034199;28;20507;-76
2021/09/27 10:35:28;;;;;;;15.18;12.95;;;20.60;99.90;;;;;;5065637;28;20128;-74
2021/09/27 10:38:18;;;;;;;13.85;12.45;;;20.80;99.90;;;;;;5051922;28;20558;-75
2021/09/27 10:40:47;;;;;;;14.82;12.65;;;20.90;99.90;;;;;;5032985;28;20040;-74
2021/09/27 10:43:17;;;;;;;14.57;12.70;;;20.90;99.90;;;;;;5036671;28;20114;-74
2021/09/27 10:45:47;;;;;;;15.85;11.77;;;20.80;99.90;;;;;;5046293;28;20041;-75
2021/09/27 10:48:14;;;;;;;;;;;20.60;99.90;;;;;;5060707;28;20045;-75
2021/09/27 10:50:44;;;;;;;13.38;12.00;;;20.60;99.90;;;;;;5024302;28;20473;-76
2021/09/27 10:53:22;;;;;;;12.60;11.30;;;20.50;99.90;;;;;;5041417;28;20495;-77
2021/09/27 10:55:55;;;;;;;13.40;12.00;;;20.60;99.90;;;;;;5023037;28;20237;-75
2021/09/27 10:58:44;;;;;;;12.88;11.38;;;20.60;99.90;;;;;;5050668;28;20039;-75
2021/09/27 11:01:29;;;;;;;11.82;10.63;;;20.70;99.90;;;;;;5030708;28;20049;-74
2021/09/27 11:03:56;;;;;;;12.68;10.85;;;20.80;99.90;;;;;;5035300;28;20049;-75
2021/09/27 11:06:43;;;;;;;13.10;11.60;;;20.80;99.90;;;;;;5057858;28;20084;-75
2021/09/27 11:09:29;;;;;;;12.65;11.35;;;20.80;99.90;;;;;;5024812;28;20052;-76
2021/09/27 11:11:59;;;;;;;13.40;10.70;;;20.80;99.90;;;;;;5047154;28;20047;-75
2021/09/27 11:14:40;;;;;;;10.95;9.85;;;20.90;99.90;;;;;;5049597;28;20041;-73
2021/09/27 11:17:05;;;;;;;11.27;9.30;;;21.00;99.90;;;;;;5016545;28;20053;-75
2021/09/27 11:19:37;;;;;;;11.55;9.77;;;21.10;99.90;;;;;;5053436;28;20032;-75
2021/09/27 11:22:17;;;;;;;13.13;9.95;;;21.20;99.90;;;;;;5046512;28;20056;-75
2021/09/27 11:24:43;;;;;;;;;;;21.30;99.90;;;;;;5046101;28;20039;-75
2021/09/27 11:27:18;;;;;;;10.88;9.70;;;21.20;99.90;;;;;;5060499;28;19921;-75
2021/09/27 11:29:56;;;;;;;12.68;9.88;;;21.10;99.90;;;;;;5044053;28;20122;-75
2021/09/27 11:32:36;;;;;;;10.07;8.90;;;21.00;99.90;;;;;;5033878;28;20036;-74
2021/09/27 11:35:34;;;;;;;10.63;8.88;;;20.90;99.90;;;;;;5034945;28;20510;-75
2021/09/27 11:38:05;;;;;;;10.75;9.55;;;20.80;99.90;;;;;;5043223;28;20446;-75
2021/09/27 11:40:38;;;;;;;10.77;9.77;;;20.70;99.90;;;;;;5050759;28;20731;-74
2021/09/27 11:43:22;;;;;;;10.95;9.40;;;20.60;99.90;;;;;;5043670;28;20052;-74
2021/09/27 11:46:13;;;;;;;9.98;8.57;;;20.70;99.90;;;;;;5047500;28;21935;-75
2021/09/27 11:48:55;;;;;;;9.63;8.63;;;20.80;99.90;;;;;;5028004;28;20050;-75
2021/09/27 11:51:32;;;;;;;11.43;8.82;;;20.90;99.90;;;;;;5030258;28;20274;-75
2021/09/27 11:54:22;;;;;;;11.50;8.88;;;20.90;99.90;;;;;;5047626;28;20048;-75
2021/09/27 11:56:57;;;;;;;9.18;8.27;;;21.00;99.90;;;;;;5048438;28;20048;-75
2021/09/27 11:59:34;;;;;;;12.45;8.63;;;21.00;99.90;;;;;;5031980;28;20048;-74
2021/09/27 12:02:08;;;;;;;9.88;8.45;;;21.00;99.90;;;;;;5047160;28;20048;-75
2021/09/27 12:04:49;;;;;;;12.45;8.52;;;21.00;99.90;;;;;;5040380;28;20053;-74
2021/09/27 12:07:16;;;;;;;10.07;8.43;;;20.90;99.90;;;;;;5049271;28;20049;-73
2021/09/27 12:09:48;;;;;;;12.75;9.25;;;20.80;99.90;;;;;;5038223;28;20049;-77
2021/09/27 12:12:28;;;;;;;14.15;9.60;;;20.80;99.90;;;;;;5046834;28;20499;-75
2021/09/27 12:14:56;;;;;;;9.40;8.43;;;20.80;99.90;;;;;;5049564;28;20052;-74
2021/09/27 12:17:26;;;;;;;10.63;8.10;;;20.70;99.90;;;;;;5029383;28;20052;-74
2021/09/27 12:19:59;;;;;;;10.10;9.10;;;20.80;99.90;;;;;;5049587;28;20052;-76
2021/09/27 12:22:42;;;;;;;11.15;8.70;;;20.80;99.90;;;;;;5048491;28;20049;-75
2021/09/27 12:25:12;;;;;;;12.13;9.15;;;20.80;99.90;;;;;;5049823;28;20049;-74
2021/09/27 12:28:07;;;;;;;13.18;9.45;;;20.70;99.90;;;;;;5049462;28;20044;-74
2021/09/27 12:30:38;;;;;;;13.55;8.93;;;20.70;99.90;;;;;;5047556;28;20088;-77
2021/09/27 12:33:09;;;;;;;10.55;8.55;;;20.70;99.90;;;;;;5033439;28;20049;-75
2021/09/27 12:35:46;;;;;;;12.45;8.68;;;20.70;99.90;;;;;;5038599;28;20059;-75
2021/09/27 12:38:19;;;;;;;10.95;8.35;;;20.70;99.90;;;;;;5039931;28;20119;-74
2021/09/27 12:40:51;;;;;;;10.90;8.60;;;20.60;99.90;;;;;;5030342;28;20067;-74
2021/09/27 12:43:23;;;;;;;11.77;8.68;;;20.60;99.90;;;;;;5032480;28;20075;-74
2021/09/27 12:45:56;;;;;;;9.95;8.38;;;20.50;99.90;;;;;;5048436;28;20068;-74
2021/09/27 12:48:36;;;;;;;9.38;8.20;;;20.40;99.90;;;;;;5049224;28;20193;-74
2021/09/27 12:51:21;;;;;;;;;;;20.50;99.90;;;;;;5048334;28;20095;-74
2021/09/27 12:54:12;;;;;;;8.30;7.22;;;20.40;99.90;;;;;;5054400;28;20405;-75
2021/09/27 12:56:38;;;;;;;9.35;7.53;;;20.40;99.90;;;;;;5047743;28;20470;-74
2021/09/27 12:59:14;;;;;;;8.90;7.45;;;20.40;99.90;;;;;;5053930;28;20087;-74
2021/09/27 13:01:48;;;;;;;8.80;7.57;;;20.40;99.90;;;;;;5043128;28;20123;-75
2021/09/27 13:04:33;;;;;;;10.57;7.22;;;20.40;99.90;;;;;;5032459;28;20490;-74
2021/09/27 13:07:07;;;;;;;8.85;7.13;;;20.40;99.90;;;;;;5057417;28;20069;-75
2021/09/27 13:09:38;;;;;;;9.82;7.13;;;20.30;99.90;;;;;;5037208;28;20068;-74
2021/09/27 13:12:29;;;;;;;9.75;7.60;;;20.30;99.90;;;;;;5050264;28;20055;-75
2021/09/27 13:15:05;;;;;;;10.77;7.57;;;20.30;99.90;;;;;;5039088;28;20064;-75
2021/09/27 13:17:35;;;;;;;10.48;7.50;;;20.30;99.90;;;;;;5048314;28;20056;-74
2021/09/27 13:20:33;;;;;;;10.13;6.93;;;20.20;99.90;;;;;;5031587;28;20499;-75
2021/09/27 13:23:01;;;;;;;9.25;7.22;;;20.30;99.90;;;;;;5030297;28;20045;-75